Terminal Aerodrome Forecast
Issued by NWS

Home | Current Version | Previous Version | Text Only | Print | Product List | Glossary On
Versions: 1 2 3 4 5 6 7 8 9 10 11 12 13 14 15 16 17 18 19 20 21 22 23 24 25 26 27 28 29 30 31 32 33 34 35 36 37 38 39 40 41 42 43 44 45 46 47 48 49 50
000
FTAK31 PANC 261859 AAA
TAFASN
TAF AMD
PASN 261859Z 2619/2718 20021G29KT P6SM VCSH SCT015 OVC025
      TEMPO 2619/2620 4SM -SHRA BR BKN015
     FM270600 14025G33KT 4SM -RA BR SCT008 OVC015
     FM271200 17025G33KT P6SM -SHRA SCT015 OVC025=

USA.gov is the U.S. government's official web portal to all federal, state and local government web resources and services.